sensor_id;sensor_type;location;lat;lon;timestamp;P1;durP1;ratioP1;P2;durP2;ratioP2
49978;SDS011;35869;50.990;6.962;2023-02-22T00:02:21;107.68;;;32.72;;
49978;SDS011;35869;50.990;6.962;2023-02-22T00:07:21;105.10;;;32.10;;
49978;SDS011;35869;50.990;6.962;2023-02-22T00:12:21;104.60;;;30.98;;
49978;SDS011;35869;50.990;6.962;2023-02-22T00:17:22;174.98;;;36.90;;
49978;SDS011;35869;50.990;6.962;2023-02-22T00:22:22;148.23;;;37.90;;
49978;SDS011;35869;50.990;6.962;2023-02-22T00:27:22;119.75;;;32.97;;
49978;SDS011;35869;50.990;6.962;2023-02-22T00:32:22;121.53;;;34.93;;
49978;SDS011;35869;50.990;6.962;2023-02-22T00:37:23;119.80;;;31.27;;
49978;SDS011;35869;50.990;6.962;2023-02-22T00:42:23;127.87;;;36.07;;
49978;SDS011;35869;50.990;6.962;2023-02-22T00:47:23;115.38;;;32.65;;
49978;SDS011;35869;50.990;6.962;2023-02-22T00:52:24;108.38;;;34.10;;
49978;SDS011;35869;50.990;6.962;2023-02-22T00:57:24;152.05;;;37.03;;
49978;SDS011;35869;50.990;6.962;2023-02-22T01:02:24;124.57;;;38.70;;
49978;SDS011;35869;50.990;6.962;2023-02-22T01:07:24;181.95;;;39.72;;
49978;SDS011;35869;50.990;6.962;2023-02-22T01:12:25;196.77;;;45.05;;
49978;SDS011;35869;50.990;6.962;2023-02-22T01:17:25;128.60;;;34.58;;
49978;SDS011;35869;50.990;6.962;2023-02-22T01:22:25;184.25;;;38.55;;
49978;SDS011;35869;50.990;6.962;2023-02-22T01:27:26;80.93;;;31.08;;
49978;SDS011;35869;50.990;6.962;2023-02-22T01:32:26;199.77;;;49.13;;
49978;SDS011;35869;50.990;6.962;2023-02-22T01:37:26;122.65;;;34.78;;
49978;SDS011;35869;50.990;6.962;2023-02-22T01:42:26;175.63;;;36.88;;
49978;SDS011;35869;50.990;6.962;2023-02-22T01:47:27;149.30;;;34.67;;
49978;SDS011;35869;50.990;6.962;2023-02-22T01:52:27;91.05;;;29.52;;
49978;SDS011;35869;50.990;6.962;2023-02-22T01:57:29;170.23;;;37.75;;
49978;SDS011;35869;50.990;6.962;2023-02-22T02:02:32;184.20;;;45.05;;
49978;SDS011;35869;50.990;6.962;2023-02-22T02:07:33;105.03;;;33.92;;
49978;SDS011;35869;50.990;6.962;2023-02-22T02:12:35;150.13;;;38.13;;
49978;SDS011;35869;50.990;6.962;2023-02-22T02:17:35;154.20;;;36.27;;
49978;SDS011;35869;50.990;6.962;2023-02-22T02:28:34;116.25;;;34.63;;
49978;SDS011;35869;50.990;6.962;2023-02-22T02:49:35;63.33;;;30.40;;
49978;SDS011;35869;50.990;6.962;2023-02-22T02:54:41;58.97;;;27.25;;
49978;SDS011;35869;50.990;6.962;2023-02-22T02:59:43;113.32;;;31.05;;
49978;SDS011;35869;50.990;6.962;2023-02-22T03:04:59;50.28;;;25.70;;
49978;SDS011;35869;50.990;6.962;2023-02-22T03:26:13;55.58;;;28.25;;
49978;SDS011;35869;50.990;6.962;2023-02-22T03:31:20;45.08;;;25.13;;
49978;SDS011;35869;50.990;6.962;2023-02-22T03:36:24;49.58;;;27.17;;
49978;SDS011;35869;50.990;6.962;2023-02-22T03:41:27;55.83;;;27.50;;
49978;SDS011;35869;50.990;6.962;2023-02-22T03:46:30;52.20;;;25.50;;
49978;SDS011;35869;50.990;6.962;2023-02-22T03:51:33;38.78;;;23.10;;
49978;SDS011;35869;50.990;6.962;2023-02-22T03:56:38;39.83;;;23.13;;
49978;SDS011;35869;50.990;6.962;2023-02-22T04:01:41;40.83;;;23.70;;
49978;SDS011;35869;50.990;6.962;2023-02-22T04:06:41;33.70;;;21.63;;
49978;SDS011;35869;50.990;6.962;2023-02-22T04:11:41;33.25;;;21.77;;
49978;SDS011;35869;50.990;6.962;2023-02-22T04:16:42;31.33;;;18.87;;
49978;SDS011;35869;50.990;6.962;2023-02-22T04:21:42;33.43;;;20.20;;
49978;SDS011;35869;50.990;6.962;2023-02-22T04:26:42;30.52;;;19.92;;
49978;SDS011;35869;50.990;6.962;2023-02-22T04:31:42;43.78;;;23.48;;
49978;SDS011;35869;50.990;6.962;2023-02-22T04:36:43;26.90;;;18.40;;
49978;SDS011;35869;50.990;6.962;2023-02-22T04:41:43;39.20;;;22.08;;
49978;SDS011;35869;50.990;6.962;2023-02-22T04:46:43;29.95;;;19.13;;
49978;SDS011;35869;50.990;6.962;2023-02-22T04:51:43;29.08;;;19.50;;
49978;SDS011;35869;50.990;6.962;2023-02-22T04:56:44;34.50;;;20.48;;
49978;SDS011;35869;50.990;6.962;2023-02-22T05:01:44;26.47;;;18.37;;
49978;SDS011;35869;50.990;6.962;2023-02-22T05:06:44;25.23;;;18.07;;
49978;SDS011;35869;50.990;6.962;2023-02-22T05:11:45;30.20;;;18.95;;
49978;SDS011;35869;50.990;6.962;2023-02-22T05:16:46;31.77;;;20.58;;
49978;SDS011;35869;50.990;6.962;2023-02-22T05:21:47;49.85;;;24.30;;
49978;SDS011;35869;50.990;6.962;2023-02-22T05:26:48;40.87;;;20.57;;
49978;SDS011;35869;50.990;6.962;2023-02-22T05:31:48;71.97;;;28.75;;
49978;SDS011;35869;50.990;6.962;2023-02-22T05:36:48;79.30;;;26.40;;
49978;SDS011;35869;50.990;6.962;2023-02-22T05:41:49;67.07;;;22.75;;
49978;SDS011;35869;50.990;6.962;2023-02-22T05:46:49;99.30;;;30.80;;
49978;SDS011;35869;50.990;6.962;2023-02-22T05:51:49;41.17;;;21.10;;
49978;SDS011;35869;50.990;6.962;2023-02-22T05:56:49;36.42;;;22.27;;
49978;SDS011;35869;50.990;6.962;2023-02-22T06:01:49;34.35;;;22.08;;
49978;SDS011;35869;50.990;6.962;2023-02-22T06:06:50;32.67;;;20.67;;
49978;SDS011;35869;50.990;6.962;2023-02-22T06:11:50;24.38;;;17.42;;
49978;SDS011;35869;50.990;6.962;2023-02-22T06:16:51;28.45;;;18.83;;
49978;SDS011;35869;50.990;6.962;2023-02-22T06:21:55;30.70;;;19.88;;
49978;SDS011;35869;50.990;6.962;2023-02-22T06:26:58;27.27;;;18.85;;
49978;SDS011;35869;50.990;6.962;2023-02-22T06:32:00;25.80;;;18.25;;
49978;SDS011;35869;50.990;6.962;2023-02-22T06:37:00;23.48;;;17.15;;
49978;SDS011;35869;50.990;6.962;2023-02-22T06:42:00;24.60;;;16.17;;
49978;SDS011;35869;50.990;6.962;2023-02-22T06:47:00;24.92;;;16.65;;
49978;SDS011;35869;50.990;6.962;2023-02-22T06:52:02;27.93;;;18.53;;
49978;SDS011;35869;50.990;6.962;2023-02-22T06:57:04;29.83;;;19.77;;
49978;SDS011;35869;50.990;6.962;2023-02-22T07:02:04;32.55;;;23.35;;
49978;SDS011;35869;50.990;6.962;2023-02-22T07:07:04;28.10;;;20.83;;
49978;SDS011;35869;50.990;6.962;2023-02-22T07:12:05;37.97;;;21.47;;
49978;SDS011;35869;50.990;6.962;2023-02-22T07:17:05;28.53;;;20.87;;
49978;SDS011;35869;50.990;6.962;2023-02-22T07:22:05;29.30;;;19.92;;
49978;SDS011;35869;50.990;6.962;2023-02-22T07:27:05;28.50;;;19.13;;
49978;SDS011;35869;50.990;6.962;2023-02-22T07:32:06;28.20;;;19.67;;
49978;SDS011;35869;50.990;6.962;2023-02-22T07:37:06;31.33;;;20.27;;
49978;SDS011;35869;50.990;6.962;2023-02-22T07:42:06;35.67;;;20.77;;
49978;SDS011;35869;50.990;6.962;2023-02-22T07:47:06;34.60;;;22.33;;
49978;SDS011;35869;50.990;6.962;2023-02-22T07:52:06;40.72;;;24.75;;
49978;SDS011;35869;50.990;6.962;2023-02-22T07:57:07;42.58;;;25.27;;
49978;SDS011;35869;50.990;6.962;2023-02-22T08:02:09;52.40;;;29.80;;
49978;SDS011;35869;50.990;6.962;2023-02-22T08:07:15;48.80;;;27.85;;
49978;SDS011;35869;50.990;6.962;2023-02-22T08:12:15;64.32;;;31.65;;
49978;SDS011;35869;50.990;6.962;2023-02-22T08:17:15;53.67;;;30.30;;
49978;SDS011;35869;50.990;6.962;2023-02-22T08:22:15;60.08;;;32.40;;
49978;SDS011;35869;50.990;6.962;2023-02-22T08:27:15;56.90;;;32.40;;
49978;SDS011;35869;50.990;6.962;2023-02-22T08:32:16;62.35;;;32.08;;
49978;SDS011;35869;50.990;6.962;2023-02-22T08:37:17;56.07;;;31.30;;
49978;SDS011;35869;50.990;6.962;2023-02-22T08:42:17;56.00;;;32.13;;
49978;SDS011;35869;50.990;6.962;2023-02-22T08:47:17;59.47;;;33.10;;
49978;SDS011;35869;50.990;6.962;2023-02-22T08:52:18;61.47;;;31.13;;
49978;SDS011;35869;50.990;6.962;2023-02-22T09:02:20;47.80;;;28.50;;
49978;SDS011;35869;50.990;6.962;2023-02-22T09:07:21;43.17;;;25.42;;
49978;SDS011;35869;50.990;6.962;2023-02-22T09:12:21;36.53;;;22.27;;
49978;SDS011;35869;50.990;6.962;2023-02-22T09:17:21;37.38;;;22.27;;
49978;SDS011;35869;50.990;6.962;2023-02-22T09:22:21;40.45;;;22.83;;
49978;SDS011;35869;50.990;6.962;2023-02-22T09:27:22;27.85;;;19.73;;
49978;SDS011;35869;50.990;6.962;2023-02-22T09:32:22;31.45;;;18.63;;
49978;SDS011;35869;50.990;6.962;2023-02-22T09:37:23;31.30;;;19.58;;
49978;SDS011;35869;50.990;6.962;2023-02-22T09:47:36;27.73;;;18.25;;
49978;SDS011;35869;50.990;6.962;2023-02-22T09:52:40;29.88;;;19.20;;
49978;SDS011;35869;50.990;6.962;2023-02-22T09:57:47;29.92;;;18.50;;
49978;SDS011;35869;50.990;6.962;2023-02-22T10:08:28;29.33;;;17.23;;
49978;SDS011;35869;50.990;6.962;2023-02-22T10:13:34;24.35;;;16.35;;
49978;SDS011;35869;50.990;6.962;2023-02-22T10:29:42;18.38;;;14.18;;
49978;SDS011;35869;50.990;6.962;2023-02-22T10:34:47;17.05;;;11.60;;
49978;SDS011;35869;50.990;6.962;2023-02-22T10:39:49;14.30;;;11.10;;
49978;SDS011;35869;50.990;6.962;2023-02-22T10:44:53;17.35;;;10.80;;
49978;SDS011;35869;50.990;6.962;2023-02-22T10:49:57;14.57;;;9.77;;
49978;SDS011;35869;50.990;6.962;2023-02-22T10:55:00;14.35;;;10.18;;
49978;SDS011;35869;50.990;6.962;2023-02-22T11:10:34;13.20;;;10.10;;
49978;SDS011;35869;50.990;6.962;2023-02-22T11:15:34;12.30;;;9.13;;
49978;SDS011;35869;50.990;6.962;2023-02-22T11:20:35;11.48;;;8.20;;
49978;SDS011;35869;50.990;6.962;2023-02-22T11:25:38;12.07;;;7.93;;
49978;SDS011;35869;50.990;6.962;2023-02-22T11:30:40;12.95;;;7.07;;
49978;SDS011;35869;50.990;6.962;2023-02-22T11:40:46;10.15;;;7.25;;
49978;SDS011;35869;50.990;6.962;2023-02-22T11:46:03;17.42;;;7.63;;
49978;SDS011;35869;50.990;6.962;2023-02-22T11:51:15;12.57;;;7.75;;
49978;SDS011;35869;50.990;6.962;2023-02-22T11:56:44;13.45;;;6.75;;
49978;SDS011;35869;50.990;6.962;2023-02-22T12:01:47;14.63;;;7.32;;
49978;SDS011;35869;50.990;6.962;2023-02-22T12:06:57;9.45;;;6.40;;
49978;SDS011;35869;50.990;6.962;2023-02-22T12:12:13;7.63;;;5.35;;
49978;SDS011;35869;50.990;6.962;2023-02-22T12:17:35;6.45;;;4.82;;
49978;SDS011;35869;50.990;6.962;2023-02-22T12:22:53;9.23;;;6.13;;
49978;SDS011;35869;50.990;6.962;2023-02-22T12:33:45;8.82;;;5.40;;
49978;SDS011;35869;50.990;6.962;2023-02-22T12:39:03;7.75;;;5.50;;
49978;SDS011;35869;50.990;6.962;2023-02-22T12:44:17;7.30;;;5.53;;
49978;SDS011;35869;50.990;6.962;2023-02-22T12:59:48;7.82;;;5.05;;
49978;SDS011;35869;50.990;6.962;2023-02-22T13:04:52;8.52;;;4.85;;
49978;SDS011;35869;50.990;6.962;2023-02-22T13:15:25;6.28;;;5.05;;
49978;SDS011;35869;50.990;6.962;2023-02-22T13:20:58;10.30;;;6.30;;
49978;SDS011;35869;50.990;6.962;2023-02-22T13:31:22;10.40;;;5.60;;
49978;SDS011;35869;50.990;6.962;2023-02-22T13:36:40;13.88;;;6.60;;
49978;SDS011;35869;50.990;6.962;2023-02-22T13:42:00;9.05;;;6.60;;
49978;SDS011;35869;50.990;6.962;2023-02-22T13:52:20;11.05;;;6.93;;
49978;SDS011;35869;50.990;6.962;2023-02-22T13:57:26;10.30;;;5.85;;
49978;SDS011;35869;50.990;6.962;2023-02-22T14:02:33;11.93;;;7.68;;
49978;SDS011;35869;50.990;6.962;2023-02-22T14:08:03;11.03;;;7.00;;
49978;SDS011;35869;50.990;6.962;2023-02-22T14:13:05;9.43;;;6.57;;
49978;SDS011;35869;50.990;6.962;2023-02-22T14:18:12;11.25;;;7.45;;
49978;SDS011;35869;50.990;6.962;2023-02-22T14:28:34;12.38;;;6.97;;
49978;SDS011;35869;50.990;6.962;2023-02-22T14:33:49;13.80;;;7.80;;
49978;SDS011;35869;50.990;6.962;2023-02-22T14:38:52;12.15;;;7.65;;
49978;SDS011;35869;50.990;6.962;2023-02-22T14:44:01;10.20;;;6.97;;
49978;SDS011;35869;50.990;6.962;2023-02-22T14:49:04;12.88;;;7.63;;
49978;SDS011;35869;50.990;6.962;2023-02-22T14:59:22;9.70;;;6.30;;
49978;SDS011;35869;50.990;6.962;2023-02-22T15:04:25;10.02;;;6.57;;
49978;SDS011;35869;50.990;6.962;2023-02-22T15:09:28;8.82;;;6.35;;
49978;SDS011;35869;50.990;6.962;2023-02-22T15:14:32;8.43;;;6.75;;
49978;SDS011;35869;50.990;6.962;2023-02-22T15:19:37;8.93;;;6.47;;
49978;SDS011;35869;50.990;6.962;2023-02-22T15:24:39;9.50;;;6.97;;
49978;SDS011;35869;50.990;6.962;2023-02-22T15:29:40;9.90;;;7.53;;
49978;SDS011;35869;50.990;6.962;2023-02-22T15:34:42;9.75;;;6.97;;
49978;SDS011;35869;50.990;6.962;2023-02-22T15:39:43;10.68;;;6.95;;
49978;SDS011;35869;50.990;6.962;2023-02-22T15:44:43;11.25;;;6.85;;
49978;SDS011;35869;50.990;6.962;2023-02-22T15:49:45;10.38;;;6.55;;
49978;SDS011;35869;50.990;6.962;2023-02-22T15:55:08;8.95;;;6.13;;
49978;SDS011;35869;50.990;6.962;2023-02-22T16:05:50;8.20;;;6.23;;
49978;SDS011;35869;50.990;6.962;2023-02-22T16:11:15;10.25;;;5.88;;
49978;SDS011;35869;50.990;6.962;2023-02-22T16:16:20;9.77;;;5.55;;
49978;SDS011;35869;50.990;6.962;2023-02-22T16:21:23;7.88;;;5.28;;
49978;SDS011;35869;50.990;6.962;2023-02-22T16:26:31;9.50;;;5.30;;
49978;SDS011;35869;50.990;6.962;2023-02-22T16:31:33;7.95;;;5.10;;
49978;SDS011;35869;50.990;6.962;2023-02-22T16:36:42;7.70;;;5.25;;
49978;SDS011;35869;50.990;6.962;2023-02-22T16:41:44;11.30;;;6.32;;
49978;SDS011;35869;50.990;6.962;2023-02-22T16:57:01;7.90;;;5.82;;
49978;SDS011;35869;50.990;6.962;2023-02-22T17:02:03;8.77;;;5.57;;
49978;SDS011;35869;50.990;6.962;2023-02-22T17:07:03;13.70;;;8.20;;
49978;SDS011;35869;50.990;6.962;2023-02-22T17:12:04;9.55;;;6.78;;
49978;SDS011;35869;50.990;6.962;2023-02-22T17:17:04;11.18;;;6.97;;
49978;SDS011;35869;50.990;6.962;2023-02-22T17:22:04;10.18;;;6.50;;
49978;SDS011;35869;50.990;6.962;2023-02-22T17:27:04;11.68;;;7.00;;
49978;SDS011;35869;50.990;6.962;2023-02-22T17:32:05;16.70;;;7.05;;
49978;SDS011;35869;50.990;6.962;2023-02-22T17:37:06;8.93;;;6.90;;
49978;SDS011;35869;50.990;6.962;2023-02-22T17:42:06;9.07;;;6.85;;
49978;SDS011;35869;50.990;6.962;2023-02-22T17:47:06;13.40;;;7.78;;
49978;SDS011;35869;50.990;6.962;2023-02-22T17:52:07;13.23;;;7.53;;
49978;SDS011;35869;50.990;6.962;2023-02-22T17:57:07;10.95;;;7.65;;
49978;SDS011;35869;50.990;6.962;2023-02-22T18:02:07;13.23;;;7.30;;
49978;SDS011;35869;50.990;6.962;2023-02-22T18:07:08;15.88;;;9.15;;
49978;SDS011;35869;50.990;6.962;2023-02-22T18:12:08;11.87;;;9.27;;
49978;SDS011;35869;50.990;6.962;2023-02-22T18:17:08;15.05;;;9.05;;
49978;SDS011;35869;50.990;6.962;2023-02-22T18:22:08;11.27;;;8.02;;
49978;SDS011;35869;50.990;6.962;2023-02-22T18:27:09;14.27;;;9.40;;
49978;SDS011;35869;50.990;6.962;2023-02-22T18:32:09;13.98;;;10.02;;
49978;SDS011;35869;50.990;6.962;2023-02-22T18:37:09;14.20;;;11.02;;
49978;SDS011;35869;50.990;6.962;2023-02-22T18:42:09;19.40;;;11.43;;
49978;SDS011;35869;50.990;6.962;2023-02-22T18:47:09;20.55;;;12.35;;
49978;SDS011;35869;50.990;6.962;2023-02-22T18:52:10;19.55;;;13.77;;
49978;SDS011;35869;50.990;6.962;2023-02-22T18:57:10;13.55;;;11.13;;
49978;SDS011;35869;50.990;6.962;2023-02-22T19:02:12;19.98;;;12.80;;
49978;SDS011;35869;50.990;6.962;2023-02-22T19:07:13;20.45;;;13.02;;
49978;SDS011;35869;50.990;6.962;2023-02-22T19:12:14;21.25;;;14.32;;
49978;SDS011;35869;50.990;6.962;2023-02-22T19:17:14;21.40;;;13.45;;
49978;SDS011;35869;50.990;6.962;2023-02-22T19:22:14;16.88;;;13.43;;
49978;SDS011;35869;50.990;6.962;2023-02-22T19:27:14;20.33;;;12.97;;
49978;SDS011;35869;50.990;6.962;2023-02-22T19:32:14;20.05;;;13.38;;
49978;SDS011;35869;50.990;6.962;2023-02-22T19:37:15;18.73;;;14.32;;
49978;SDS011;35869;50.990;6.962;2023-02-22T19:42:15;19.85;;;14.80;;
49978;SDS011;35869;50.990;6.962;2023-02-22T19:47:15;19.23;;;13.75;;
49978;SDS011;35869;50.990;6.962;2023-02-22T19:52:15;17.55;;;14.45;;
49978;SDS011;35869;50.990;6.962;2023-02-22T19:57:16;17.13;;;14.25;;
49978;SDS011;35869;50.990;6.962;2023-02-22T20:02:16;20.58;;;15.73;;
49978;SDS011;35869;50.990;6.962;2023-02-22T20:07:16;25.75;;;16.20;;
49978;SDS011;35869;50.990;6.962;2023-02-22T20:12:16;23.17;;;16.40;;
49978;SDS011;35869;50.990;6.962;2023-02-22T20:17:16;23.45;;;16.38;;
49978;SDS011;35869;50.990;6.962;2023-02-22T20:22:17;25.20;;;17.27;;
49978;SDS011;35869;50.990;6.962;2023-02-22T20:27:17;24.48;;;18.75;;
49978;SDS011;35869;50.990;6.962;2023-02-22T20:32:17;25.45;;;17.08;;
49978;SDS011;35869;50.990;6.962;2023-02-22T20:37:17;25.85;;;18.13;;
49978;SDS011;35869;50.990;6.962;2023-02-22T20:42:17;27.60;;;20.00;;
49978;SDS011;35869;50.990;6.962;2023-02-22T20:47:18;25.35;;;18.85;;
49978;SDS011;35869;50.990;6.962;2023-02-22T20:52:19;22.23;;;16.70;;
49978;SDS011;35869;50.990;6.962;2023-02-22T20:57:19;23.00;;;19.48;;
49978;SDS011;35869;50.990;6.962;2023-02-22T21:02:19;25.88;;;19.02;;
49978;SDS011;35869;50.990;6.962;2023-02-22T21:07:19;26.40;;;20.27;;
49978;SDS011;35869;50.990;6.962;2023-02-22T21:12:19;23.75;;;19.38;;
49978;SDS011;35869;50.990;6.962;2023-02-22T21:17:20;24.45;;;20.13;;
49978;SDS011;35869;50.990;6.962;2023-02-22T21:22:20;28.60;;;18.15;;
49978;SDS011;35869;50.990;6.962;2023-02-22T21:27:20;29.35;;;20.67;;
49978;SDS011;35869;50.990;6.962;2023-02-22T21:32:20;26.10;;;21.48;;
49978;SDS011;35869;50.990;6.962;2023-02-22T21:37:20;29.50;;;22.08;;
49978;SDS011;35869;50.990;6.962;2023-02-22T21:42:21;36.65;;;23.92;;
49978;SDS011;35869;50.990;6.962;2023-02-22T21:47:21;32.60;;;24.52;;
49978;SDS011;35869;50.990;6.962;2023-02-22T21:57:22;34.42;;;24.65;;
49978;SDS011;35869;50.990;6.962;2023-02-22T22:02:22;36.00;;;25.58;;
49978;SDS011;35869;50.990;6.962;2023-02-22T22:07:22;37.97;;;25.00;;
49978;SDS011;35869;50.990;6.962;2023-02-22T22:12:23;35.17;;;26.33;;
49978;SDS011;35869;50.990;6.962;2023-02-22T22:17:23;39.88;;;27.38;;
49978;SDS011;35869;50.990;6.962;2023-02-22T22:22:23;40.22;;;30.15;;
49978;SDS011;35869;50.990;6.962;2023-02-22T22:27:23;38.42;;;30.23;;
49978;SDS011;35869;50.990;6.962;2023-02-22T22:32:23;45.85;;;32.53;;
49978;SDS011;35869;50.990;6.962;2023-02-22T22:37:24;38.72;;;29.70;;
49978;SDS011;35869;50.990;6.962;2023-02-22T22:42:25;41.05;;;30.45;;
49978;SDS011;35869;50.990;6.962;2023-02-22T22:47:25;39.83;;;30.63;;
49978;SDS011;35869;50.990;6.962;2023-02-22T22:52:27;40.15;;;31.13;;
49978;SDS011;35869;50.990;6.962;2023-02-22T22:57:27;38.97;;;32.40;;
49978;SDS011;35869;50.990;6.962;2023-02-22T23:02:27;44.05;;;36.47;;
49978;SDS011;35869;50.990;6.962;2023-02-22T23:07:28;45.25;;;34.08;;
49978;SDS011;35869;50.990;6.962;2023-02-22T23:12:28;47.35;;;35.33;;
49978;SDS011;35869;50.990;6.962;2023-02-22T23:17:28;48.05;;;34.83;;
49978;SDS011;35869;50.990;6.962;2023-02-22T23:22:28;52.40;;;34.75;;
49978;SDS011;35869;50.990;6.962;2023-02-22T23:27:28;52.35;;;39.70;;
49978;SDS011;35869;50.990;6.962;2023-02-22T23:32:29;55.03;;;37.65;;
49978;SDS011;35869;50.990;6.962;2023-02-22T23:37:29;53.28;;;38.28;;
49978;SDS011;35869;50.990;6.962;2023-02-22T23:42:29;48.50;;;36.33;;
49978;SDS011;35869;50.990;6.962;2023-02-22T23:47:29;53.28;;;37.78;;
49978;SDS011;35869;50.990;6.962;2023-02-22T23:52:29;50.30;;;37.58;;
49978;SDS011;35869;50.990;6.962;2023-02-22T23:57:30;51.25;;;37.78;;
